<?xml version="1.0" encoding="UTF-8" standalone="no" ?><gpx xmlns="http://www.topografix.com/GPX/1/1" xmlns:gpxx="http://www.garmin.com/xmlschemas/GpxExtensions/v3" xmlns:gpxtrkx="http://www.garmin.com/xmlschemas/TrackStatsExtension/v1" xmlns:wptx1="http://www.garmin.com/xmlschemas/WaypointExtension/v1" xmlns:gpxtpx="http://www.garmin.com/xmlschemas/TrackPointExtension/v1" creator="Oregon 700" version="1.1" xmlns:xsi="http://www.w3.org/2001/XMLSchema-instance" xsi:schemaLocation="http://www.topografix.com/GPX/1/1 http://www.topografix.com/GPX/1/1/gpx.xsd http://www.garmin.com/xmlschemas/GpxExtensions/v3 http://www8.garmin.com/xmlschemas/GpxExtensionsv3.xsd http://www.garmin.com/xmlschemas/TrackStatsExtension/v1 http://www8.garmin.com/xmlschemas/TrackStatsExtension.xsd http://www.garmin.com/xmlschemas/WaypointExtension/v1 http://www8.garmin.com/xmlschemas/WaypointExtensionv1.xsd http://www.garmin.com/xmlschemas/TrackPointExtension/v1 http://www.garmin.com/xmlschemas/TrackPointExtensionv1.xsd"><metadata><link href="http://www.garmin.com"><text>Garmin International</text></link><time>2024-01-03T14:34:11Z</time></metadata><trk><name>Current Track: 03 JAN 2024 10:10</name><extensions><gpxx:TrackExtension><gpxx:DisplayColor>Cyan</gpxx:DisplayColor></gpxx:TrackExtension><gpxtrkx:TrackStatsExtension><gpxtrkx:Distance>4378.000</gpxtrkx:Distance><gpxtrkx:TimerTime>6958</gpxtrkx:TimerTime><gpxtrkx:TotalElapsedTime>15851</gpxtrkx:TotalElapsedTime><gpxtrkx:MovingTime>5886</gpxtrkx:MovingTime><gpxtrkx:StoppedTime>1072</gpxtrkx:StoppedTime><gpxtrkx:MovingSpeed>0.744</gpxtrkx:MovingSpeed><gpxtrkx:MaxSpeed>1.150</gpxtrkx:MaxSpeed><gpxtrkx:MaxElevation>448.539</gpxtrkx:MaxElevation><gpxtrkx:MinElevation>352.374</gpxtrkx:MinElevation><gpxtrkx:Ascent>101.000</gpxtrkx:Ascent><gpxtrkx:Descent>105.574</gpxtrkx:Descent><gpxtrkx:AvgAscentRate>0.053</gpxtrkx:AvgAscentRate><gpxtrkx:MaxAscentRate>0.103</gpxtrkx:MaxAscentRate><gpxtrkx:AvgDescentRate>0.073</gpxtrkx:AvgDescentRate><gpxtrkx:MaxDescentRate>-0.159</gpxtrkx:MaxDescentRate><gpxtrkx:Calories>178</gpxtrkx:Calories></gpxtrkx:TrackStatsExtension></extensions><trkseg><trkpt lat="51.9346162956" lon="-1.9719858840"><ele>362.89</ele><time>2024-01-03T10:10:01Z</time></trkpt><trkpt lat="51.9346130267" lon="-1.9719875604"><ele>359.55</ele><time>2024-01-03T10:10:20Z</time></trkpt><trkpt lat="51.9346145354" lon="-1.9719894882"><ele>358.75</ele><time>2024-01-03T10:10:22Z</time></trkpt><trkpt lat="51.9346173014" lon="-1.9720005523"><ele>363.93</ele><time>2024-01-03T10:10:25Z</time></trkpt><trkpt lat="51.9346224144" lon="-1.9720028993"><ele>367.08</ele><time>2024-01-03T10:10:27Z</time></trkpt><trkpt lat="51.9346245099" lon="-1.9719975349"><ele>367.87</ele><time>2024-01-03T10:10:29Z</time></trkpt><trkpt lat="51.9346151222" lon="-1.9719888177"><ele>364.68</ele><time>2024-01-03T10:10:37Z</time></trkpt><trkpt lat="51.9346065726" lon="-1.9719517697"><ele>363.28</ele><time>2024-01-03T10:11:03Z</time></trkpt><trkpt lat="51.9345582090" lon="-1.9719279651"><ele>363.15</ele><time>2024-01-03T10:11:28Z</time></trkpt><trkpt lat="51.9345457200" lon="-1.9718782604"><ele>363.15</ele><time>2024-01-03T10:11:53Z</time></trkpt><trkpt lat="51.9345197361" lon="-1.9718985446"><ele>363.15</ele><time>2024-01-03T10:12:19Z</time></trkpt><trkpt lat="51.9345803373" lon="-1.9720135443"><ele>363.15</ele><time>2024-01-03T10:12:43Z</time></trkpt><trkpt lat="51.9346134458" lon="-1.9720647577"><ele>363.15</ele><time>2024-01-03T10:12:47Z</time></trkpt><trkpt lat="51.9346457999" lon="-1.9721914921"><ele>363.15</ele><time>2024-01-03T10:13:10Z</time></trkpt><trkpt lat="51.9345806725" lon="-1.9722569548"><ele>364.15</ele><time>2024-01-03T10:13:34Z</time></trkpt><trkpt lat="51.9345322251" lon="-1.9723783247"><ele>365.67</ele><time>2024-01-03T10:13:59Z</time></trkpt><trkpt lat="51.9345346559" lon="-1.9724512473"><ele>367.02</ele><time>2024-01-03T10:14:22Z</time></trkpt><trkpt lat="51.9344883040" lon="-1.9725129381"><ele>369.23</ele><time>2024-01-03T10:14:48Z</time></trkpt><trkpt lat="51.9344408624" lon="-1.9726006966"><ele>371.12</ele><time>2024-01-03T10:15:16Z</time></trkpt><trkpt lat="51.9343603961" lon="-1.9726662431"><ele>372.78</ele><time>2024-01-03T10:15:46Z</time></trkpt><trkpt lat="51.9342755713" lon="-1.9727105834"><ele>374.96</ele><time>2024-01-03T10:16:08Z</time></trkpt><trkpt lat="51.9341785088" lon="-1.9727782253"><ele>376.82</ele><time>2024-01-03T10:16:35Z</time></trkpt><trkpt lat="51.9341601525" lon="-1.9728206377"><ele>377.97</ele><time>2024-01-03T10:17:00Z</time></trkpt><trkpt lat="51.9341386948" lon="-1.9728161953"><ele>378.60</ele><time>2024-01-03T10:17:26Z</time></trkpt><trkpt lat="51.9341029041" lon="-1.9728883635"><ele>378.98</ele><time>2024-01-03T10:17:48Z</time></trkpt><trkpt lat="51.9340196718" lon="-1.9729446899"><ele>380.56</ele><time>2024-01-03T10:18:09Z</time></trkpt><trkpt lat="51.9339417201" lon="-1.9729856774"><ele>382.67</ele><time>2024-01-03T10:18:33Z</time></trkpt><trkpt lat="51.9338916801" lon="-1.9730016030"><ele>383.28</ele><time>2024-01-03T10:18:56Z</time></trkpt><trkpt lat="51.9338740781" lon="-1.9729356375"><ele>384.39</ele><time>2024-01-03T10:19:15Z</time></trkpt><trkpt lat="51.9338717312" lon="-1.9728697557"><ele>385.15</ele><time>2024-01-03T10:19:34Z</time></trkpt><trkpt lat="51.9338238705" lon="-1.9726761337"><ele>385.33</ele><time>2024-01-03T10:19:57Z</time></trkpt><trkpt lat="51.9337862357" lon="-1.9724278618"><ele>385.31</ele><time>2024-01-03T10:20:20Z</time></trkpt><trkpt lat="51.9337575696" lon="-1.9721891452"><ele>384.96</ele><time>2024-01-03T10:20:42Z</time></trkpt><trkpt lat="51.9337133132" lon="-1.9719278812"><ele>384.96</ele><time>2024-01-03T10:21:07Z</time></trkpt><trkpt lat="51.9336817972" lon="-1.9716596603"><ele>384.96</ele><time>2024-01-03T10:21:31Z</time></trkpt><trkpt lat="51.9336343557" lon="-1.9713867456"><ele>384.96</ele><time>2024-01-03T10:21:56Z</time></trkpt><trkpt lat="51.9335970562" lon="-1.9711284153"><ele>384.97</ele><time>2024-01-03T10:22:20Z</time></trkpt><trkpt lat="51.9335410651" lon="-1.9709726796"><ele>384.97</ele><time>2024-01-03T10:22:40Z</time></trkpt><trkpt lat="51.9334429130" lon="-1.9708420057"><ele>384.97</ele><time>2024-01-03T10:23:01Z</time></trkpt><trkpt lat="51.9333351217" lon="-1.9709147606"><ele>384.97</ele><time>2024-01-03T10:23:20Z</time></trkpt><trkpt lat="51.9332362153" lon="-1.9710550737"><ele>389.63</ele><time>2024-01-03T10:23:41Z</time></trkpt><trkpt lat="51.9332343712" lon="-1.9710584264"><ele>389.57</ele><time>2024-01-03T10:23:42Z</time></trkpt><trkpt lat="51.9332124945" lon="-1.9710917864"><ele>388.56</ele><time>2024-01-03T10:24:02Z</time></trkpt><trkpt lat="51.9332087226" lon="-1.9710974023"><ele>391.75</ele><time>2024-01-03T10:24:09Z</time></trkpt><trkpt lat="51.9331668131" lon="-1.9711332768"><ele>390.94</ele><time>2024-01-03T10:24:31Z</time></trkpt><trkpt lat="51.9331702497" lon="-1.9711297564"><ele>389.00</ele><time>2024-01-03T10:24:43Z</time></trkpt><trkpt lat="51.9330875203" lon="-1.9712892640"><ele>389.00</ele><time>2024-01-03T10:25:08Z</time></trkpt><trkpt lat="51.9330419227" lon="-1.9714028388"><ele>389.00</ele><time>2024-01-03T10:25:30Z</time></trkpt><trkpt lat="51.9329873566" lon="-1.9714957941"><ele>393.87</ele><time>2024-01-03T10:25:43Z</time></trkpt><trkpt lat="51.9329819083" lon="-1.9715049304"><ele>393.90</ele><time>2024-01-03T10:25:44Z</time></trkpt><trkpt lat="51.9328585267" lon="-1.9717000611"><ele>395.55</ele><time>2024-01-03T10:26:07Z</time></trkpt><trkpt lat="51.9327563513" lon="-1.9718784280"><ele>397.63</ele><time>2024-01-03T10:26:32Z</time></trkpt><trkpt lat="51.9326953311" lon="-1.9719565473"><ele>399.57</ele><time>2024-01-03T10:26:54Z</time></trkpt><trkpt lat="51.9326783996" lon="-1.9719991274"><ele>399.92</ele><time>2024-01-03T10:27:21Z</time></trkpt><trkpt lat="51.9326012023" lon="-1.9721321482"><ele>401.59</ele><time>2024-01-03T10:27:43Z</time></trkpt><trkpt lat="51.9324991107" lon="-1.9722697791"><ele>403.77</ele><time>2024-01-03T10:28:07Z</time></trkpt><trkpt lat="51.9324282836" lon="-1.9723817613"><ele>405.98</ele><time>2024-01-03T10:28:30Z</time></trkpt><trkpt lat="51.9323661737" lon="-1.9724292867"><ele>407.51</ele><time>2024-01-03T10:28:54Z</time></trkpt><trkpt lat="51.9323275331" lon="-1.9724882115"><ele>407.68</ele><time>2024-01-03T10:29:13Z</time></trkpt><trkpt lat="51.9322364219" lon="-1.9725741260"><ele>409.44</ele><time>2024-01-03T10:29:36Z</time></trkpt><trkpt lat="51.9321813527" lon="-1.9726430252"><ele>411.77</ele><time>2024-01-03T10:29:58Z</time></trkpt><trkpt lat="51.9321216736" lon="-1.9727114215"><ele>412.43</ele><time>2024-01-03T10:30:22Z</time></trkpt><trkpt lat="51.9321206678" lon="-1.9727219827"><ele>414.26</ele><time>2024-01-03T10:30:44Z</time></trkpt><trkpt lat="51.9321116153" lon="-1.9727276824"><ele>413.56</ele><time>2024-01-03T10:31:09Z</time></trkpt><trkpt lat="51.9320655987" lon="-1.9727464579"><ele>413.20</ele><time>2024-01-03T10:31:33Z</time></trkpt><trkpt lat="51.9319506828" lon="-1.9728756230"><ele>415.95</ele><time>2024-01-03T10:31:55Z</time></trkpt><trkpt lat="51.9318637624" lon="-1.9729283452"><ele>417.75</ele><time>2024-01-03T10:32:13Z</time></trkpt><trkpt lat="51.9318487588" lon="-1.9729457796"><ele>419.17</ele><time>2024-01-03T10:32:35Z</time></trkpt><trkpt lat="51.9317366090" lon="-1.9730697479"><ele>419.57</ele><time>2024-01-03T10:32:58Z</time></trkpt><trkpt lat="51.9316588249" lon="-1.9731413294"><ele>420.48</ele><time>2024-01-03T10:33:07Z</time></trkpt><trkpt lat="51.9315535482" lon="-1.9732365478"><ele>422.18</ele><time>2024-01-03T10:33:23Z</time></trkpt><trkpt lat="51.9314540550" lon="-1.9733160920"><ele>424.88</ele><time>2024-01-03T10:33:45Z</time></trkpt><trkpt lat="51.9313849881" lon="-1.9733372983"><ele>425.72</ele><time>2024-01-03T10:34:07Z</time></trkpt><trkpt lat="51.9313265663" lon="-1.9733813033"><ele>428.03</ele><time>2024-01-03T10:34:24Z</time></trkpt><trkpt lat="51.9312399812" lon="-1.9734336063"><ele>428.48</ele><time>2024-01-03T10:34:55Z</time></trkpt><trkpt lat="51.9311357103" lon="-1.9734658767"><ele>430.42</ele><time>2024-01-03T10:35:15Z</time></trkpt><trkpt lat="51.9310904481" lon="-1.9734868314"><ele>430.95</ele><time>2024-01-03T10:35:41Z</time></trkpt><trkpt lat="51.9309995882" lon="-1.9734870829"><ele>432.69</ele><time>2024-01-03T10:36:02Z</time></trkpt><trkpt lat="51.9309750292" lon="-1.9734745938"><ele>433.36</ele><time>2024-01-03T10:36:25Z</time></trkpt><trkpt lat="51.9308705069" lon="-1.9734805450"><ele>433.83</ele><time>2024-01-03T10:36:45Z</time></trkpt><trkpt lat="51.9307788089" lon="-1.9734098017"><ele>435.92</ele><time>2024-01-03T10:37:12Z</time></trkpt><trkpt lat="51.9306514878" lon="-1.9732465222"><ele>436.79</ele><time>2024-01-03T10:37:36Z</time></trkpt><trkpt lat="51.9305905513" lon="-1.9730944745"><ele>436.64</ele><time>2024-01-03T10:37:59Z</time></trkpt><trkpt lat="51.9305204786" lon="-1.9729613699"><ele>436.81</ele><time>2024-01-03T10:38:19Z</time></trkpt><trkpt lat="51.9304576144" lon="-1.9728047960"><ele>438.04</ele><time>2024-01-03T10:38:42Z</time></trkpt><trkpt lat="51.9303706940" lon="-1.9726232439"><ele>439.27</ele><time>2024-01-03T10:39:09Z</time></trkpt><trkpt lat="51.9302458875" lon="-1.9724574499"><ele>439.89</ele><time>2024-01-03T10:39:34Z</time></trkpt><trkpt lat="51.9301357493" lon="-1.9722865429"><ele>440.30</ele><time>2024-01-03T10:40:01Z</time></trkpt><trkpt lat="51.9300664309" lon="-1.9721191563"><ele>440.39</ele><time>2024-01-03T10:40:25Z</time></trkpt><trkpt lat="51.9299935084" lon="-1.9720005523"><ele>439.59</ele><time>2024-01-03T10:40:50Z</time></trkpt><trkpt lat="51.9298699591" lon="-1.9718606584"><ele>439.13</ele><time>2024-01-03T10:41:12Z</time></trkpt><trkpt lat="51.9297673646" lon="-1.9717977103"><ele>439.05</ele><time>2024-01-03T10:41:34Z</time></trkpt><trkpt lat="51.9296951126" lon="-1.9717922620"><ele>439.49</ele><time>2024-01-03T10:41:44Z</time></trkpt><trkpt lat="51.9295266364" lon="-1.9717634283"><ele>440.67</ele><time>2024-01-03T10:42:09Z</time></trkpt><trkpt lat="51.9294315018" lon="-1.9717373606"><ele>441.44</ele><time>2024-01-03T10:42:27Z</time></trkpt><trkpt lat="51.9293330982" lon="-1.9716817886"><ele>441.84</ele><time>2024-01-03T10:42:42Z</time></trkpt><trkpt lat="51.9291756023" lon="-1.9715545513"><ele>442.84</ele><time>2024-01-03T10:43:10Z</time></trkpt><trkpt lat="51.9290859159" lon="-1.9715170003"><ele>443.73</ele><time>2024-01-03T10:43:31Z</time></trkpt><trkpt lat="51.9289287552" lon="-1.9714680500"><ele>444.53</ele><time>2024-01-03T10:43:56Z</time></trkpt><trkpt lat="51.9288495462" lon="-1.9714320078"><ele>445.19</ele><time>2024-01-03T10:44:18Z</time></trkpt><trkpt lat="51.9287342113" lon="-1.9713660423"><ele>445.94</ele><time>2024-01-03T10:44:43Z</time></trkpt><trkpt lat="51.9285850134" lon="-1.9712841511"><ele>446.27</ele><time>2024-01-03T10:45:10Z</time></trkpt><trkpt lat="51.9284097478" lon="-1.9712458458"><ele>446.81</ele><time>2024-01-03T10:45:34Z</time></trkpt><trkpt lat="51.9282818399" lon="-1.9711960573"><ele>447.22</ele><time>2024-01-03T10:46:01Z</time></trkpt><trkpt lat="51.9281488191" lon="-1.9711029343"><ele>447.17</ele><time>2024-01-03T10:46:25Z</time></trkpt><trkpt lat="51.9280370045" lon="-1.9709714223"><ele>447.17</ele><time>2024-01-03T10:46:47Z</time></trkpt><trkpt lat="51.9279387686" lon="-1.9708990864"><ele>447.17</ele><time>2024-01-03T10:47:09Z</time></trkpt><trkpt lat="51.9278266188" lon="-1.9708273374"><ele>447.17</ele><time>2024-01-03T10:47:30Z</time></trkpt><trkpt lat="51.9277775846" lon="-1.9707886130"><ele>447.17</ele><time>2024-01-03T10:47:56Z</time></trkpt><trkpt lat="51.9277759083" lon="-1.9708113279"><ele>447.17</ele><time>2024-01-03T10:48:18Z</time></trkpt><trkpt lat="51.9277725555" lon="-1.9707757048"><ele>447.17</ele><time>2024-01-03T10:48:41Z</time></trkpt><trkpt lat="51.9277882297" lon="-1.9707227312"><ele>447.17</ele><time>2024-01-03T10:49:04Z</time></trkpt><trkpt lat="51.9277656823" lon="-1.9706922211"><ele>447.17</ele><time>2024-01-03T10:49:33Z</time></trkpt><trkpt lat="51.9277477451" lon="-1.9707065541"><ele>447.17</ele><time>2024-01-03T10:50:05Z</time></trkpt><trkpt lat="51.9277254492" lon="-1.9708235655"><ele>447.17</ele><time>2024-01-03T10:50:25Z</time></trkpt><trkpt lat="51.9276612438" lon="-1.9709784631"><ele>447.17</ele><time>2024-01-03T10:50:44Z</time></trkpt><trkpt lat="51.9276248664" lon="-1.9709682371"><ele>447.17</ele><time>2024-01-03T10:51:05Z</time></trkpt><trkpt lat="51.9276367687" lon="-1.9709710870"><ele>447.17</ele><time>2024-01-03T10:51:32Z</time></trkpt><trkpt lat="51.9276183285" lon="-1.9709870126"><ele>447.17</ele><time>2024-01-03T10:51:58Z</time></trkpt><trkpt lat="51.9276297279" lon="-1.9709712546"><ele>447.17</ele><time>2024-01-03T10:52:30Z</time></trkpt><trkpt lat="51.9276521914" lon="-1.9710223842"><ele>447.17</ele><time>2024-01-03T10:52:45Z</time></trkpt><trkpt lat="51.9275827054" lon="-1.9711209554"><ele>447.17</ele><time>2024-01-03T10:53:08Z</time></trkpt><trkpt lat="51.9274475053" lon="-1.9711335283"><ele>447.17</ele><time>2024-01-03T10:53:31Z</time></trkpt><trkpt lat="51.9274174981" lon="-1.9711174350"><ele>447.17</ele><time>2024-01-03T10:53:49Z</time></trkpt><trkpt lat="51.9274172466" lon="-1.9710670598"><ele>447.17</ele><time>2024-01-03T10:54:14Z</time></trkpt><trkpt lat="51.9274362735" lon="-1.9709818158"><ele>447.17</ele><time>2024-01-03T10:54:41Z</time></trkpt><trkpt lat="51.9274423923" lon="-1.9710194506"><ele>447.17</ele><time>2024-01-03T10:55:06Z</time></trkpt><trkpt lat="51.9274275564" lon="-1.9710378908"><ele>447.17</ele><time>2024-01-03T10:55:32Z</time></trkpt><trkpt lat="51.9273969624" lon="-1.9710629527"><ele>447.17</ele><time>2024-01-03T10:55:53Z</time></trkpt><trkpt lat="51.9273970462" lon="-1.9710526429"><ele>447.17</ele><time>2024-01-03T10:56:18Z</time></trkpt><trkpt lat="51.9273874070" lon="-1.9710610248"><ele>447.17</ele><time>2024-01-03T10:56:47Z</time></trkpt><trkpt lat="51.9273986388" lon="-1.9710588455"><ele>447.17</ele><time>2024-01-03T10:57:24Z</time></trkpt><trkpt lat="51.9273952860" lon="-1.9710568339"><ele>447.17</ele><time>2024-01-03T10:57:47Z</time></trkpt><trkpt lat="51.9274056796" lon="-1.9710453507"><ele>447.17</ele><time>2024-01-03T10:58:05Z</time></trkpt><trkpt lat="51.9274188392" lon="-1.9709037803"><ele>445.60</ele><time>2024-01-03T10:58:25Z</time></trkpt><trkpt lat="51.9273891672" lon="-1.9709681533"><ele>444.85</ele><time>2024-01-03T10:58:39Z</time></trkpt><trkpt lat="51.9273793604" lon="-1.9709627051"><ele>442.36</ele><time>2024-01-03T10:58:48Z</time></trkpt><trkpt lat="51.9273798633" lon="-1.9709000923"><ele>444.72</ele><time>2024-01-03T10:58:51Z</time></trkpt><trkpt lat="51.9273667037" lon="-1.9709747750"><ele>447.20</ele><time>2024-01-03T10:58:53Z</time></trkpt><trkpt lat="51.9273686316" lon="-1.9709800556"><ele>447.91</ele><time>2024-01-03T10:58:54Z</time></trkpt><trkpt lat="51.9273983873" lon="-1.9710438419"><ele>446.02</ele><time>2024-01-03T10:59:18Z</time></trkpt><trkpt lat="51.9273917656" lon="-1.9709435944"><ele>444.81</ele><time>2024-01-03T10:59:44Z</time></trkpt><trkpt lat="51.9274597429" lon="-1.9708020240"><ele>445.45</ele><time>2024-01-03T11:01:07Z</time></trkpt><trkpt lat="51.9274254609" lon="-1.9711916987"><ele>444.86</ele><time>2024-01-03T11:08:04Z</time></trkpt><trkpt lat="51.9274276402" lon="-1.9710549898"><ele>444.85</ele><time>2024-01-03T11:08:10Z</time></trkpt><trkpt lat="51.9273773488" lon="-1.9707502238"><ele>444.90</ele><time>2024-01-03T11:09:04Z</time></trkpt><trkpt lat="51.9273948669" lon="-1.9709125813"><ele>444.66</ele><time>2024-01-03T11:15:39Z</time></trkpt><trkpt lat="51.9273983873" lon="-1.9708913751"><ele>444.66</ele><time>2024-01-03T11:15:43Z</time></trkpt><trkpt lat="51.9273681287" lon="-1.9710957259"><ele>444.66</ele><time>2024-01-03T11:16:29Z</time></trkpt><trkpt lat="51.9273939449" lon="-1.9710829016"><ele>445.32</ele><time>2024-01-03T11:16:53Z</time></trkpt><trkpt lat="51.9273779355" lon="-1.9710479490"><ele>445.40</ele><time>2024-01-03T11:17:18Z</time></trkpt><trkpt lat="51.9273762591" lon="-1.9710245635"><ele>444.99</ele><time>2024-01-03T11:17:47Z</time></trkpt><trkpt lat="51.9273973815" lon="-1.9710427523"><ele>444.99</ele><time>2024-01-03T11:18:15Z</time></trkpt><trkpt lat="51.9274008181" lon="-1.9710401539"><ele>444.99</ele><time>2024-01-03T11:18:43Z</time></trkpt><trkpt lat="51.9273837190" lon="-1.9710421655"><ele>444.99</ele><time>2024-01-03T11:19:06Z</time></trkpt><trkpt lat="51.9273939449" lon="-1.9710963964"><ele>444.99</ele><time>2024-01-03T11:19:30Z</time></trkpt><trkpt lat="51.9274275564" lon="-1.9710737653"><ele>444.99</ele><time>2024-01-03T11:20:00Z</time></trkpt><trkpt lat="51.9274989702" lon="-1.9710903615"><ele>444.99</ele><time>2024-01-03T11:20:23Z</time></trkpt><trkpt lat="51.9275835436" lon="-1.9711543992"><ele>444.99</ele><time>2024-01-03T11:20:40Z</time></trkpt><trkpt lat="51.9276019000" lon="-1.9711872563"><ele>444.99</ele><time>2024-01-03T11:21:03Z</time></trkpt><trkpt lat="51.9275290612" lon="-1.9713947922"><ele>444.99</ele><time>2024-01-03T11:21:22Z</time></trkpt><trkpt lat="51.9274946954" lon="-1.9716670364"><ele>444.99</ele><time>2024-01-03T11:21:45Z</time></trkpt><trkpt lat="51.9274745788" lon="-1.9718782604"><ele>444.99</ele><time>2024-01-03T11:22:06Z</time></trkpt><trkpt lat="51.9274147321" lon="-1.9721856248"><ele>444.99</ele><time>2024-01-03T11:22:31Z</time></trkpt><trkpt lat="51.9274039194" lon="-1.9723160472"><ele>442.27</ele><time>2024-01-03T11:22:41Z</time></trkpt><trkpt lat="51.9273454137" lon="-1.9726818334"><ele>441.60</ele><time>2024-01-03T11:23:07Z</time></trkpt><trkpt lat="51.9273094554" lon="-1.9729522336"><ele>441.05</ele><time>2024-01-03T11:23:29Z</time></trkpt><trkpt lat="51.9272775203" lon="-1.9732467737"><ele>440.78</ele><time>2024-01-03T11:23:54Z</time></trkpt><trkpt lat="51.9272318389" lon="-1.9736162480"><ele>439.59</ele><time>2024-01-03T11:24:23Z</time></trkpt><trkpt lat="51.9271891750" lon="-1.9738861453"><ele>438.43</ele><time>2024-01-03T11:24:44Z</time></trkpt><trkpt lat="51.9271501154" lon="-1.9741982035"><ele>438.21</ele><time>2024-01-03T11:25:09Z</time></trkpt><trkpt lat="51.9271009136" lon="-1.9745178893"><ele>437.31</ele><time>2024-01-03T11:25:31Z</time></trkpt><trkpt lat="51.9270645361" lon="-1.9747931510"><ele>437.65</ele><time>2024-01-03T11:25:54Z</time></trkpt><trkpt lat="51.9270279072" lon="-1.9750810694"><ele>437.53</ele><time>2024-01-03T11:26:17Z</time></trkpt><trkpt lat="51.9269932061" lon="-1.9753612764"><ele>436.82</ele><time>2024-01-03T11:26:42Z</time></trkpt><trkpt lat="51.9269328564" lon="-1.9757429045"><ele>436.40</ele><time>2024-01-03T11:27:13Z</time></trkpt><trkpt lat="51.9268862531" lon="-1.9762136322"><ele>436.53</ele><time>2024-01-03T11:27:47Z</time></trkpt><trkpt lat="51.9268077984" lon="-1.9765304681"><ele>436.12</ele><time>2024-01-03T11:28:13Z</time></trkpt><trkpt lat="51.9267907832" lon="-1.9767615572"><ele>436.37</ele><time>2024-01-03T11:28:35Z</time></trkpt><trkpt lat="51.9267467782" lon="-1.9770930614"><ele>436.43</ele><time>2024-01-03T11:29:06Z</time></trkpt><trkpt lat="51.9267107360" lon="-1.9774196204"><ele>436.29</ele><time>2024-01-03T11:29:32Z</time></trkpt><trkpt lat="51.9266414177" lon="-1.9777825568"><ele>436.46</ele><time>2024-01-03T11:29:56Z</time></trkpt><trkpt lat="51.9265995082" lon="-1.9780413900"><ele>436.03</ele><time>2024-01-03T11:30:19Z</time></trkpt><trkpt lat="51.9265671540" lon="-1.9783205912"><ele>435.88</ele><time>2024-01-03T11:30:42Z</time></trkpt><trkpt lat="51.9265295193" lon="-1.9785768259"><ele>435.95</ele><time>2024-01-03T11:31:06Z</time></trkpt><trkpt lat="51.9265209697" lon="-1.9788352400"><ele>435.95</ele><time>2024-01-03T11:31:30Z</time></trkpt><trkpt lat="51.9264269248" lon="-1.9791001920"><ele>435.95</ele><time>2024-01-03T11:31:54Z</time></trkpt><trkpt lat="51.9263699278" lon="-1.9793772977"><ele>435.95</ele><time>2024-01-03T11:32:24Z</time></trkpt><trkpt lat="51.9263335504" lon="-1.9796215463"><ele>435.95</ele><time>2024-01-03T11:32:48Z</time></trkpt><trkpt lat="51.9262915570" lon="-1.9799112249"><ele>435.95</ele><time>2024-01-03T11:33:16Z</time></trkpt><trkpt lat="51.9262625556" lon="-1.9801009074"><ele>435.95</ele><time>2024-01-03T11:33:40Z</time></trkpt><trkpt lat="51.9262438640" lon="-1.9802046753"><ele>435.95</ele><time>2024-01-03T11:33:55Z</time></trkpt><trkpt lat="51.9262318779" lon="-1.9803395402"><ele>435.95</ele><time>2024-01-03T11:34:19Z</time></trkpt><trkpt lat="51.9262496475" lon="-1.9804036617"><ele>435.95</ele><time>2024-01-03T11:34:46Z</time></trkpt><trkpt lat="51.9262292795" lon="-1.9805023167"><ele>435.95</ele><time>2024-01-03T11:35:10Z</time></trkpt><trkpt lat="51.9262314588" lon="-1.9805633370"><ele>435.95</ele><time>2024-01-03T11:35:21Z</time></trkpt><trkpt lat="51.9263128471" lon="-1.9805204216"><ele>435.95</ele><time>2024-01-03T11:35:44Z</time></trkpt><trkpt lat="51.9264443591" lon="-1.9804822840"><ele>435.95</ele><time>2024-01-03T11:36:06Z</time></trkpt><trkpt lat="51.9265790563" lon="-1.9804174080"><ele>435.95</ele><time>2024-01-03T11:36:30Z</time></trkpt><trkpt lat="51.9267057907" lon="-1.9802941941"><ele>435.95</ele><time>2024-01-03T11:36:49Z</time></trkpt><trkpt lat="51.9268123247" lon="-1.9802218582"><ele>435.95</ele><time>2024-01-03T11:37:10Z</time></trkpt><trkpt lat="51.9268678967" lon="-1.9801815413"><ele>435.95</ele><time>2024-01-03T11:37:31Z</time></trkpt><trkpt lat="51.9270205311" lon="-1.9800515380"><ele>435.95</ele><time>2024-01-03T11:37:52Z</time></trkpt><trkpt lat="51.9271763507" lon="-1.9799237978"><ele>435.95</ele><time>2024-01-03T11:38:18Z</time></trkpt><trkpt lat="51.9273474254" lon="-1.9798082113"><ele>435.95</ele><time>2024-01-03T11:38:37Z</time></trkpt><trkpt lat="51.9275185838" lon="-1.9797146693"><ele>435.95</ele><time>2024-01-03T11:38:59Z</time></trkpt><trkpt lat="51.9276582263" lon="-1.9796355441"><ele>435.95</ele><time>2024-01-03T11:39:20Z</time></trkpt><trkpt lat="51.9277662691" lon="-1.9795657229"><ele>435.95</ele><time>2024-01-03T11:39:36Z</time></trkpt><trkpt lat="51.9279003795" lon="-1.9794104062"><ele>435.95</ele><time>2024-01-03T11:40:00Z</time></trkpt><trkpt lat="51.9280732982" lon="-1.9792965800"><ele>435.95</ele><time>2024-01-03T11:40:24Z</time></trkpt><trkpt lat="51.9282374159" lon="-1.9792139344"><ele>435.95</ele><time>2024-01-03T11:40:47Z</time></trkpt><trkpt lat="51.9284641463" lon="-1.9791519083"><ele>435.95</ele><time>2024-01-03T11:41:12Z</time></trkpt><trkpt lat="51.9286478776" lon="-1.9791165367"><ele>435.95</ele><time>2024-01-03T11:41:29Z</time></trkpt><trkpt lat="51.9287929684" lon="-1.9790773932"><ele>435.95</ele><time>2024-01-03T11:41:46Z</time></trkpt><trkpt lat="51.9289139193" lon="-1.9790420216"><ele>429.39</ele><time>2024-01-03T11:42:03Z</time></trkpt><trkpt lat="51.9289197028" lon="-1.9790367410"><ele>429.40</ele><time>2024-01-03T11:42:04Z</time></trkpt><trkpt lat="51.9290256500" lon="-1.9789639860"><ele>428.73</ele><time>2024-01-03T11:42:23Z</time></trkpt><trkpt lat="51.9291364588" lon="-1.9788939133"><ele>427.61</ele><time>2024-01-03T11:42:40Z</time></trkpt><trkpt lat="51.9291768596" lon="-1.9788722042"><ele>426.96</ele><time>2024-01-03T11:42:51Z</time></trkpt><trkpt lat="51.9292608462" lon="-1.9788032211"><ele>426.08</ele><time>2024-01-03T11:43:17Z</time></trkpt><trkpt lat="51.9293445814" lon="-1.9787526783"><ele>424.76</ele><time>2024-01-03T11:43:36Z</time></trkpt><trkpt lat="51.9295001496" lon="-1.9786621537"><ele>422.43</ele><time>2024-01-03T11:44:02Z</time></trkpt><trkpt lat="51.9296685420" lon="-1.9785152189"><ele>420.17</ele><time>2024-01-03T11:44:30Z</time></trkpt><trkpt lat="51.9298166502" lon="-1.9784011412"><ele>417.82</ele><time>2024-01-03T11:44:56Z</time></trkpt><trkpt lat="51.9299661834" lon="-1.9782500993"><ele>414.92</ele><time>2024-01-03T11:45:22Z</time></trkpt><trkpt lat="51.9302121084" lon="-1.9780882448"><ele>413.61</ele><time>2024-01-03T11:45:47Z</time></trkpt><trkpt lat="51.9303594623" lon="-1.9779522903"><ele>411.93</ele><time>2024-01-03T11:46:09Z</time></trkpt><trkpt lat="51.9305047207" lon="-1.9777674694"><ele>408.81</ele><time>2024-01-03T11:46:35Z</time></trkpt><trkpt lat="51.9306444470" lon="-1.9776815549"><ele>406.37</ele><time>2024-01-03T11:46:59Z</time></trkpt><trkpt lat="51.9307310320" lon="-1.9776307605"><ele>405.17</ele><time>2024-01-03T11:47:23Z</time></trkpt><trkpt lat="51.9307325408" lon="-1.9776227977"><ele>401.65</ele><time>2024-01-03T11:47:31Z</time></trkpt><trkpt lat="51.9307315350" lon="-1.9776185229"><ele>405.89</ele><time>2024-01-03T11:47:34Z</time></trkpt><trkpt lat="51.9307286851" lon="-1.9776092190"><ele>408.96</ele><time>2024-01-03T11:47:37Z</time></trkpt><trkpt lat="51.9307277631" lon="-1.9776073750"><ele>409.15</ele><time>2024-01-03T11:47:38Z</time></trkpt><trkpt lat="51.9307181239" lon="-1.9776047766"><ele>406.65</ele><time>2024-01-03T11:47:44Z</time></trkpt><trkpt lat="51.9306961633" lon="-1.9775468577"><ele>405.48</ele><time>2024-01-03T11:48:07Z</time></trkpt><trkpt lat="51.9307807367" lon="-1.9774607755"><ele>405.39</ele><time>2024-01-03T11:48:21Z</time></trkpt><trkpt lat="51.9308372308" lon="-1.9774222188"><ele>401.66</ele><time>2024-01-03T11:48:37Z</time></trkpt><trkpt lat="51.9309530687" lon="-1.9773145113"><ele>404.56</ele><time>2024-01-03T11:48:51Z</time></trkpt><trkpt lat="51.9310066290" lon="-1.9773091469"><ele>401.27</ele><time>2024-01-03T11:49:00Z</time></trkpt><trkpt lat="51.9311568327" lon="-1.9772648904"><ele>398.75</ele><time>2024-01-03T11:49:24Z</time></trkpt><trkpt lat="51.9313272368" lon="-1.9772283453"><ele>396.86</ele><time>2024-01-03T11:49:48Z</time></trkpt><trkpt lat="51.9314862415" lon="-1.9772288483"><ele>394.80</ele><time>2024-01-03T11:50:11Z</time></trkpt><trkpt lat="51.9315852318" lon="-1.9771891180"><ele>392.81</ele><time>2024-01-03T11:50:34Z</time></trkpt><trkpt lat="51.9316834677" lon="-1.9772126712"><ele>391.81</ele><time>2024-01-03T11:51:01Z</time></trkpt><trkpt lat="51.9318686239" lon="-1.9772812352"><ele>389.75</ele><time>2024-01-03T11:51:26Z</time></trkpt><trkpt lat="51.9319141377" lon="-1.9772712607"><ele>388.08</ele><time>2024-01-03T11:51:34Z</time></trkpt><trkpt lat="51.9319480006" lon="-1.9773015194"><ele>390.54</ele><time>2024-01-03T11:51:40Z</time></trkpt><trkpt lat="51.9321013894" lon="-1.9772845041"><ele>388.44</ele><time>2024-01-03T11:52:53Z</time></trkpt><trkpt lat="51.9321884774" lon="-1.9773127511"><ele>384.61</ele><time>2024-01-03T11:53:05Z</time></trkpt><trkpt lat="51.9322618190" lon="-1.9772938080"><ele>387.90</ele><time>2024-01-03T11:53:13Z</time></trkpt><trkpt lat="51.9322725479" lon="-1.9772998430"><ele>388.11</ele><time>2024-01-03T11:53:14Z</time></trkpt><trkpt lat="51.9323316403" lon="-1.9773252402"><ele>385.24</ele><time>2024-01-03T11:53:23Z</time></trkpt><trkpt lat="51.9325030502" lon="-1.9773316942"><ele>383.33</ele><time>2024-01-03T11:53:44Z</time></trkpt><trkpt lat="51.9326754659" lon="-1.9772118330"><ele>380.31</ele><time>2024-01-03T11:54:03Z</time></trkpt><trkpt lat="51.9329190440" lon="-1.9768883754"><ele>377.79</ele><time>2024-01-03T11:54:27Z</time></trkpt><trkpt lat="51.9329369813" lon="-1.9768637326"><ele>377.51</ele><time>2024-01-03T11:54:29Z</time></trkpt><trkpt lat="51.9330236502" lon="-1.9766715355"><ele>375.24</ele><time>2024-01-03T11:54:50Z</time></trkpt><trkpt lat="51.9331598561" lon="-1.9763648417"><ele>372.36</ele><time>2024-01-03T11:55:11Z</time></trkpt><trkpt lat="51.9332325272" lon="-1.9761664420"><ele>369.84</ele><time>2024-01-03T11:55:38Z</time></trkpt><trkpt lat="51.9333066233" lon="-1.9759111293"><ele>368.07</ele><time>2024-01-03T11:56:03Z</time></trkpt><trkpt lat="51.9333999138" lon="-1.9757199381"><ele>366.64</ele><time>2024-01-03T11:56:26Z</time></trkpt><trkpt lat="51.9334254786" lon="-1.9755393080"><ele>366.12</ele><time>2024-01-03T11:56:48Z</time></trkpt><trkpt lat="51.9335410651" lon="-1.9753782917"><ele>364.80</ele><time>2024-01-03T11:57:10Z</time></trkpt><trkpt lat="51.9336167537" lon="-1.9751539920"><ele>363.26</ele><time>2024-01-03T11:57:32Z</time></trkpt><trkpt lat="51.9337198511" lon="-1.9749683328"><ele>362.19</ele><time>2024-01-03T11:57:50Z</time></trkpt><trkpt lat="51.9338104594" lon="-1.9748499803"><ele>361.09</ele><time>2024-01-03T11:58:10Z</time></trkpt><trkpt lat="51.9339877367" lon="-1.9746246748"><ele>360.83</ele><time>2024-01-03T11:58:33Z</time></trkpt><trkpt lat="51.9341420475" lon="-1.9744113553"><ele>360.23</ele><time>2024-01-03T11:58:57Z</time></trkpt><trkpt lat="51.9342898205" lon="-1.9741906598"><ele>359.01</ele><time>2024-01-03T11:59:21Z</time></trkpt><trkpt lat="51.9343829434" lon="-1.9740747381"><ele>358.71</ele><time>2024-01-03T11:59:42Z</time></trkpt><trkpt lat="51.9345362484" lon="-1.9738384522"><ele>358.08</ele><time>2024-01-03T12:00:08Z</time></trkpt><trkpt lat="51.9345874619" lon="-1.9737861492"><ele>357.72</ele><time>2024-01-03T12:00:31Z</time></trkpt><trkpt lat="51.9347252604" lon="-1.9735661242"><ele>357.17</ele><time>2024-01-03T12:00:54Z</time></trkpt><trkpt lat="51.9348778948" lon="-1.9733404834"><ele>354.13</ele><time>2024-01-03T12:01:17Z</time></trkpt><trkpt lat="51.9348861091" lon="-1.9731326960"><ele>352.60</ele><time>2024-01-03T12:01:39Z</time></trkpt><trkpt lat="51.9348840136" lon="-1.9730286766"><ele>352.79</ele><time>2024-01-03T12:01:55Z</time></trkpt><trkpt lat="51.9348845165" lon="-1.9728727732"><ele>354.83</ele><time>2024-01-03T12:02:18Z</time></trkpt><trkpt lat="51.9348294474" lon="-1.9727121759"><ele>355.62</ele><time>2024-01-03T12:02:41Z</time></trkpt><trkpt lat="51.9347645715" lon="-1.9725830946"><ele>356.46</ele><time>2024-01-03T12:03:04Z</time></trkpt><trkpt lat="51.9346862007" lon="-1.9723820128"><ele>357.33</ele><time>2024-01-03T12:03:15Z</time></trkpt><trkpt lat="51.9346011244" lon="-1.9721914083"><ele>358.09</ele><time>2024-01-03T12:03:39Z</time></trkpt><trkpt lat="51.9345300458" lon="-1.9720957708"><ele>358.28</ele><time>2024-01-03T12:04:00Z</time></trkpt><trkpt lat="51.9345150422" lon="-1.9719905779"><ele>358.11</ele><time>2024-01-03T12:04:21Z</time></trkpt><trkpt lat="51.9345453009" lon="-1.9719261210"><ele>358.03</ele><time>2024-01-03T12:04:31Z</time></trkpt><trkpt lat="51.9345572870" lon="-1.9718924258"><ele>358.45</ele><time>2024-01-03T12:04:57Z</time></trkpt><trkpt lat="51.9345561974" lon="-1.9718731474"><ele>358.27</ele><time>2024-01-03T12:05:21Z</time></trkpt><trkpt lat="51.9345481507" lon="-1.9718739856"><ele>359.42</ele><time>2024-01-03T12:05:45Z</time></trkpt><trkpt lat="51.9345551077" lon="-1.9718402904"><ele>358.88</ele><time>2024-01-03T12:06:00Z</time></trkpt></trkseg></trk></gpx>